createdAt,value
2018-04-15T00:00:30.600Z,993.18
2018-04-15T00:01:30.789Z,993.16
2018-04-15T00:02:30.960Z,993.14
2018-04-15T00:03:31.160Z,993.11
2018-04-15T00:04:31.341Z,993.09
2018-04-15T00:05:31.528Z,993.09
2018-04-15T00:06:31.712Z,993.10
2018-04-15T00:07:31.894Z,993.09
2018-04-15T00:08:32.078Z,993.09
2018-04-15T00:09:32.263Z,993.06
2018-04-15T00:10:32.438Z,993.08
2018-04-15T00:11:32.624Z,993.03
2018-04-15T00:12:32.791Z,993.09
2018-04-15T00:13:32.969Z,993.01
2018-04-15T00:14:33.148Z,993.03
2018-04-15T00:15:33.320Z,993.03
2018-04-15T00:16:33.503Z,993.00
2018-04-15T00:17:33.687Z,993.00
2018-04-15T00:18:33.861Z,993.02
2018-04-15T00:19:34.039Z,992.99
2018-04-15T00:20:34.215Z,993.02
2018-04-15T00:21:34.402Z,992.99
2018-04-15T00:22:34.570Z,992.89
2018-04-15T00:23:34.751Z,992.88
2018-04-15T00:24:34.927Z,992.88
2018-04-15T00:25:35.103Z,992.85
2018-04-15T00:26:35.275Z,992.80
2018-04-15T00:27:35.445Z,992.76
2018-04-15T00:28:35.620Z,992.79
2018-04-15T00:29:35.801Z,992.83
2018-04-15T00:30:35.976Z,992.83
2018-04-15T00:31:36.146Z,992.88
2018-04-15T00:32:36.325Z,992.91
2018-04-15T00:33:36.507Z,992.93
2018-04-15T00:34:36.685Z,992.92
2018-04-15T00:35:36.857Z,992.96
2018-04-15T00:36:37.027Z,992.92
2018-04-15T00:37:37.221Z,992.93
2018-04-15T00:38:37.418Z,992.88
2018-04-15T00:39:37.591Z,992.83
2018-04-15T00:40:37.770Z,992.79
2018-04-15T00:41:37.942Z,992.77
2018-04-15T00:42:38.129Z,992.75
2018-04-15T00:43:38.314Z,992.68
2018-04-15T00:44:38.498Z,992.71
2018-04-15T00:45:38.667Z,992.70
2018-04-15T00:46:38.853Z,992.67
2018-04-15T00:47:39.029Z,992.69
2018-04-15T00:48:39.225Z,992.63
2018-04-15T00:49:39.400Z,992.62
2018-04-15T00:50:39.594Z,992.59
2018-04-15T00:51:39.776Z,992.61
2018-04-15T00:52:39.952Z,992.60
2018-04-15T00:53:40.125Z,992.63
2018-04-15T00:54:40.297Z,992.58
2018-04-15T00:55:40.476Z,992.60
2018-04-15T00:56:40.653Z,992.62
2018-04-15T00:57:40.835Z,992.65
2018-04-15T00:58:41.017Z,992.67
2018-04-15T00:59:41.192Z,992.66
2018-04-15T01:00:41.362Z,992.63
2018-04-15T01:01:41.585Z,992.63
2018-04-15T01:02:41.745Z,992.61
2018-04-15T01:03:41.923Z,992.61
2018-04-15T01:04:42.099Z,992.57
2018-04-15T01:05:42.285Z,992.59
2018-04-15T01:06:42.465Z,992.59
2018-04-15T01:07:42.647Z,992.56
2018-04-15T01:08:42.831Z,992.56
2018-04-15T01:09:43.046Z,992.57
2018-04-15T01:10:43.230Z,992.56
2018-04-15T01:11:43.414Z,992.56
2018-04-15T01:12:43.590Z,992.57
2018-04-15T01:13:43.789Z,992.56
2018-04-15T01:14:43.971Z,992.57
2018-04-15T01:15:44.151Z,992.55
2018-04-15T01:16:44.328Z,992.57
2018-04-15T01:17:44.508Z,992.60
2018-04-15T01:18:44.684Z,992.57
2018-04-15T01:19:44.868Z,992.62
2018-04-15T01:20:45.060Z,992.59
2018-04-15T01:21:45.237Z,992.58
2018-04-15T01:22:45.413Z,992.56
2018-04-15T01:23:45.628Z,992.54
2018-04-15T01:24:45.812Z,992.53
2018-04-15T01:25:45.990Z,992.51
2018-04-15T01:26:46.174Z,992.51
2018-04-15T01:27:46.358Z,992.48
2018-04-15T01:28:46.534Z,992.49
2018-04-15T01:29:46.708Z,992.50
2018-04-15T01:30:46.879Z,992.44
2018-04-15T01:31:47.056Z,992.50
2018-04-15T01:32:47.255Z,992.44
2018-04-15T01:33:47.434Z,992.48
2018-04-15T01:34:47.648Z,992.45
2018-04-15T01:35:47.842Z,992.45
2018-04-15T01:36:48.024Z,992.45
2018-04-15T01:37:48.196Z,992.45
2018-04-15T01:38:49.279Z,992.42
2018-04-15T01:39:48.478Z,992.43
2018-04-15T01:40:48.653Z,992.43
2018-04-15T01:41:48.847Z,992.43
2018-04-15T01:42:49.018Z,992.42
2018-04-15T01:43:49.206Z,992.43
2018-04-15T01:44:49.421Z,992.42
2018-04-15T01:45:49.577Z,992.41
2018-04-15T01:46:49.755Z,992.42
2018-04-15T01:47:49.931Z,992.38
2018-04-15T01:48:50.108Z,992.38
2018-04-15T01:49:50.284Z,992.36
2018-04-15T01:50:50.462Z,992.36
2018-04-15T01:51:50.637Z,992.33
2018-04-15T01:52:50.825Z,992.30
2018-04-15T01:53:51.003Z,992.31
2018-04-15T01:54:51.183Z,992.32
2018-04-15T01:55:51.373Z,992.25
2018-04-15T01:56:51.550Z,992.28
2018-04-15T01:57:51.738Z,992.31
2018-04-15T01:58:51.908Z,992.30
2018-04-15T01:59:52.088Z,992.30
2018-04-15T02:00:52.260Z,992.34
2018-04-15T02:01:52.438Z,992.31
2018-04-15T02:02:52.620Z,992.33
2018-04-15T02:03:52.789Z,992.34
2018-04-15T02:04:52.966Z,992.38
2018-04-15T02:05:53.144Z,992.34
2018-04-15T02:06:53.331Z,992.35
2018-04-15T02:07:53.514Z,992.34
2018-04-15T02:08:53.715Z,992.33
2018-04-15T02:09:53.875Z,992.34
2018-04-15T02:10:54.048Z,992.39
2018-04-15T02:11:54.223Z,992.40
2018-04-15T02:12:54.402Z,992.40
2018-04-15T02:13:54.577Z,992.41
2018-04-15T02:14:54.754Z,992.37
2018-04-15T02:15:54.931Z,992.41
2018-04-15T02:16:55.103Z,992.39
2018-04-15T02:17:55.278Z,992.39
2018-04-15T02:18:55.455Z,992.37
2018-04-15T02:19:55.637Z,992.32
2018-04-15T02:20:55.817Z,992.31
2018-04-15T02:21:55.993Z,992.28
2018-04-15T02:22:56.165Z,992.26
2018-04-15T02:23:56.337Z,992.24
2018-04-15T02:24:57.320Z,992.25
2018-04-15T02:25:56.710Z,992.22
2018-04-15T02:26:56.892Z,992.18
2018-04-15T02:27:57.080Z,992.20
2018-04-15T02:28:57.265Z,992.17
2018-04-15T02:29:57.450Z,992.16
2018-04-15T02:30:57.617Z,992.20
2018-04-15T02:31:57.796Z,992.18
2018-04-15T02:32:57.963Z,992.16
2018-04-15T02:33:58.145Z,992.11
2018-04-15T02:34:58.325Z,992.16
2018-04-15T02:35:58.501Z,992.11
2018-04-15T02:36:58.677Z,992.10
2018-04-15T02:37:58.842Z,992.06
2018-04-15T02:38:59.021Z,992.02
2018-04-15T02:39:59.211Z,992.05
2018-04-15T02:41:01.150Z,992.03
2018-04-15T02:41:59.592Z,992.01
2018-04-15T02:42:59.771Z,991.98
2018-04-15T02:44:01.732Z,991.99
2018-04-15T02:45:01.956Z,991.98
2018-04-15T02:46:01.139Z,991.98
2018-04-15T02:47:00.568Z,991.95
2018-04-15T02:48:00.742Z,991.91
2018-04-15T02:49:00.917Z,991.95
2018-04-15T02:50:01.109Z,991.93
2018-04-15T02:51:01.282Z,991.94
2018-04-15T02:52:03.280Z,991.89
2018-04-15T02:53:01.664Z,991.90
2018-04-15T02:54:01.842Z,991.85
2018-04-15T02:55:02.035Z,991.84
2018-04-15T02:56:02.200Z,991.86
2018-04-15T02:57:02.376Z,991.85
2018-04-15T02:58:02.559Z,991.80
2018-04-15T02:59:02.733Z,991.82
2018-04-15T03:00:02.912Z,991.83
2018-04-15T03:01:03.093Z,991.85
2018-04-15T03:02:03.279Z,991.84
2018-04-15T03:03:03.453Z,991.82
2018-04-15T03:04:03.629Z,991.80
2018-04-15T03:05:03.807Z,991.84
2018-04-15T03:06:03.991Z,991.83
2018-04-15T03:07:04.177Z,991.82
2018-04-15T03:08:04.345Z,991.83
2018-04-15T03:09:05.316Z,991.87
2018-04-15T03:10:04.734Z,991.94
2018-04-15T03:11:04.912Z,991.90
2018-04-15T03:12:05.087Z,991.94
2018-04-15T03:13:05.257Z,991.97
2018-04-15T03:14:05.437Z,991.93
2018-04-15T03:15:05.609Z,991.95
2018-04-15T03:16:05.782Z,991.96
2018-04-15T03:17:05.949Z,991.94
2018-04-15T03:18:06.121Z,991.86
2018-04-15T03:19:06.299Z,991.83
2018-04-15T03:20:06.474Z,991.85
2018-04-15T03:21:06.646Z,991.82
2018-04-15T03:22:06.828Z,991.77
2018-04-15T03:23:07.008Z,991.79
2018-04-15T03:24:07.188Z,991.79
2018-04-15T03:25:07.369Z,991.74
2018-04-15T03:26:07.538Z,991.74
2018-04-15T03:27:07.718Z,991.78
2018-04-15T03:28:07.896Z,991.77
2018-04-15T03:29:08.065Z,991.71
2018-04-15T03:30:08.242Z,991.73
2018-04-15T03:31:08.421Z,991.71
2018-04-15T03:32:08.595Z,991.74
2018-04-15T03:33:08.784Z,991.74
2018-04-15T03:34:08.959Z,991.72
2018-04-15T03:35:09.127Z,991.71
2018-04-15T03:36:09.303Z,991.72
2018-04-15T03:37:09.472Z,991.71
2018-04-15T03:38:09.650Z,991.68
2018-04-15T03:39:09.831Z,991.73
2018-04-15T03:40:10.004Z,991.67
2018-04-15T03:41:10.183Z,991.70
2018-04-15T03:42:10.353Z,991.72
2018-04-15T03:43:10.532Z,991.69
2018-04-15T03:44:10.705Z,991.66
2018-04-15T03:45:10.880Z,991.67
2018-04-15T03:46:11.053Z,991.64
2018-04-15T03:47:11.229Z,991.68
2018-04-15T03:48:11.403Z,991.62
2018-04-15T03:49:11.579Z,991.59
2018-04-15T03:50:11.763Z,991.58
2018-04-15T03:51:11.949Z,991.58
2018-04-15T03:52:12.121Z,991.62
2018-04-15T03:53:12.299Z,991.61
2018-04-15T03:54:12.477Z,991.63
2018-04-15T03:55:12.660Z,991.63
2018-04-15T03:56:12.833Z,991.59
2018-04-15T03:57:13.012Z,991.57
2018-04-15T03:58:13.189Z,991.55
2018-04-15T03:59:13.362Z,991.53
2018-04-15T04:00:13.539Z,991.57
2018-04-15T04:01:13.712Z,991.52
2018-04-15T04:02:13.898Z,991.53
2018-04-15T04:03:14.077Z,991.51
2018-04-15T04:04:14.244Z,991.54
2018-04-15T04:05:14.423Z,991.47
2018-04-15T04:06:14.603Z,991.49
2018-04-15T04:07:14.779Z,991.46
2018-04-15T04:08:14.955Z,991.44
2018-04-15T04:09:15.128Z,991.46
2018-04-15T04:10:15.308Z,991.44
2018-04-15T04:11:15.479Z,991.40
2018-04-15T04:12:15.664Z,991.37
2018-04-15T04:13:15.836Z,991.43
2018-04-15T04:14:16.012Z,991.47
2018-04-15T04:15:16.180Z,991.47
2018-04-15T04:16:16.356Z,991.44
2018-04-15T04:17:16.534Z,991.41
2018-04-15T04:18:16.716Z,991.43
2018-04-15T04:19:16.902Z,991.45
2018-04-15T04:20:17.072Z,991.43
2018-04-15T04:21:17.249Z,991.43
2018-04-15T04:22:17.436Z,991.42
2018-04-15T04:23:17.620Z,991.40
2018-04-15T04:24:17.791Z,991.38
2018-04-15T04:25:17.969Z,991.38
2018-04-15T04:26:18.141Z,991.38
2018-04-15T04:27:18.322Z,991.36
2018-04-15T04:28:18.501Z,991.36
2018-04-15T04:29:20.474Z,991.34
2018-04-15T04:30:18.906Z,991.35
2018-04-15T04:31:19.076Z,991.34
2018-04-15T04:32:19.248Z,991.32
2018-04-15T04:33:19.425Z,991.26
2018-04-15T04:34:19.602Z,991.24
2018-04-15T04:35:19.775Z,991.20
2018-04-15T04:36:19.965Z,991.19
2018-04-15T04:37:20.137Z,991.21
2018-04-15T04:38:20.327Z,991.20
2018-04-15T04:39:20.505Z,991.20
2018-04-15T04:40:20.714Z,991.19
2018-04-15T04:41:20.957Z,991.19
2018-04-15T04:42:21.601Z,991.23
2018-04-15T04:43:24.459Z,991.20
2018-04-15T04:44:24.008Z,991.26
2018-04-15T04:45:24.419Z,991.21
2018-04-15T04:46:23.136Z,991.23
2018-04-15T04:47:24.933Z,991.20
2018-04-15T04:48:24.369Z,991.21
2018-04-15T04:49:26.044Z,991.20
2018-04-15T04:50:25.030Z,991.22
2018-04-15T04:51:27.757Z,991.18
2018-04-15T04:52:25.854Z,991.14
2018-04-15T04:53:23.394Z,991.17
2018-04-15T04:54:23.288Z,991.17
2018-04-15T04:55:23.372Z,991.11
2018-04-15T04:56:23.532Z,991.15
2018-04-15T04:57:23.700Z,991.17
2018-04-15T04:58:23.872Z,991.15
2018-04-15T04:59:24.050Z,991.13
2018-04-15T05:00:24.238Z,991.12
2018-04-15T05:01:27.368Z,991.12
2018-04-15T05:02:24.615Z,991.12
2018-04-15T05:03:24.782Z,991.14
2018-04-15T05:04:24.960Z,991.16
2018-04-15T05:05:25.144Z,991.17
2018-04-15T05:06:25.330Z,991.17
2018-04-15T05:07:25.507Z,991.14
2018-04-15T05:08:25.684Z,991.15
2018-04-15T05:09:25.857Z,991.12
2018-04-15T05:10:26.037Z,991.12
2018-04-15T05:11:26.234Z,991.10
2018-04-15T05:12:26.416Z,991.12
2018-04-15T05:13:26.615Z,991.09
2018-04-15T05:14:26.772Z,991.10
2018-04-15T05:15:26.957Z,991.12
2018-04-15T05:16:27.127Z,991.09
2018-04-15T05:17:27.312Z,991.10
2018-04-15T05:18:27.487Z,991.08
2018-04-15T05:19:27.678Z,991.09
2018-04-15T05:20:27.870Z,991.07
2018-04-15T05:21:28.040Z,991.11
2018-04-15T05:22:28.223Z,991.10
2018-04-15T05:23:28.403Z,991.10
2018-04-15T05:24:28.608Z,991.05
2018-04-15T05:25:28.763Z,991.04
2018-04-15T05:26:28.940Z,991.07
2018-04-15T05:27:29.123Z,991.07
2018-04-15T05:28:29.306Z,991.08
2018-04-15T05:29:29.478Z,991.03
2018-04-15T05:30:29.655Z,991.03
2018-04-15T05:31:29.852Z,991.06
2018-04-15T05:32:30.030Z,991.02
2018-04-15T05:33:30.222Z,991.02
2018-04-15T05:34:30.401Z,991.04
2018-04-15T05:35:30.587Z,991.01
2018-04-15T05:36:30.757Z,991.03
2018-04-15T05:37:30.939Z,991.05
2018-04-15T05:38:31.110Z,991.07
2018-04-15T05:39:31.315Z,991.09
2018-04-15T05:40:31.475Z,991.07
2018-04-15T05:41:31.656Z,991.09
2018-04-15T05:42:31.823Z,991.08
2018-04-15T05:43:31.998Z,991.06
2018-04-15T05:44:32.181Z,991.07
2018-04-15T05:45:32.358Z,991.14
2018-04-15T05:46:32.536Z,991.10
2018-04-15T05:47:32.852Z,991.09
2018-04-15T05:48:32.865Z,991.09
2018-04-15T05:49:33.040Z,991.07
2018-04-15T05:50:33.226Z,991.05
2018-04-15T05:51:33.409Z,991.10
2018-04-15T05:52:33.591Z,991.10
2018-04-15T05:53:33.766Z,991.10
2018-04-15T05:54:33.946Z,991.13
2018-04-15T05:55:34.127Z,991.14
2018-04-15T05:56:34.303Z,991.15
2018-04-15T05:57:34.483Z,991.10
2018-04-15T05:58:34.660Z,991.11
2018-04-15T05:59:34.864Z,991.11
2018-04-15T06:00:35.004Z,991.11
2018-04-15T06:01:35.180Z,991.12
2018-04-15T06:02:35.361Z,991.11
2018-04-15T06:03:35.552Z,991.10
2018-04-15T06:04:35.726Z,991.14
2018-04-15T06:05:35.912Z,991.11
2018-04-15T06:06:36.093Z,991.18
2018-04-15T06:07:36.275Z,991.15
2018-04-15T06:08:36.459Z,991.17
2018-04-15T06:09:36.639Z,991.21
2018-04-15T06:10:36.810Z,991.21
2018-04-15T06:11:36.998Z,991.21
2018-04-15T06:12:37.174Z,991.27
2018-04-15T06:13:37.352Z,991.24
2018-04-15T06:14:37.532Z,991.24
2018-04-15T06:15:38.554Z,991.18
2018-04-15T06:16:37.883Z,991.15
2018-04-15T06:17:38.045Z,991.19
2018-04-15T06:18:38.225Z,991.18
2018-04-15T06:19:38.402Z,991.19
2018-04-15T06:20:38.579Z,991.19
2018-04-15T06:21:38.767Z,991.23
2018-04-15T06:22:38.943Z,991.22
2018-04-15T06:23:39.123Z,991.20
2018-04-15T06:24:39.344Z,991.18
2018-04-15T06:25:39.484Z,991.18
2018-04-15T06:26:39.656Z,991.18
2018-04-15T06:27:39.838Z,991.20
2018-04-15T06:28:40.016Z,991.18
2018-04-15T06:29:40.196Z,991.19
2018-04-15T06:30:40.375Z,991.12
2018-04-15T06:31:40.557Z,991.14
2018-04-15T06:32:40.729Z,991.15
2018-04-15T06:33:40.909Z,991.12
2018-04-15T06:34:41.091Z,991.15
2018-04-15T06:35:41.267Z,991.19
2018-04-15T06:36:41.477Z,991.14
2018-04-15T06:37:41.621Z,991.19
2018-04-15T06:38:41.796Z,991.19
2018-04-15T06:39:41.973Z,991.19
2018-04-15T06:40:42.150Z,991.15
2018-04-15T06:41:42.324Z,991.16
2018-04-15T06:42:42.498Z,991.17
2018-04-15T06:43:42.678Z,991.15
2018-04-15T06:44:42.851Z,991.20
2018-04-15T06:45:43.036Z,991.21
2018-04-15T06:46:43.214Z,991.23
2018-04-15T06:47:43.403Z,991.24
2018-04-15T06:48:43.597Z,991.24
2018-04-15T06:49:43.790Z,991.30
2018-04-15T06:50:43.982Z,991.28
2018-04-15T06:51:44.168Z,991.28
2018-04-15T06:52:44.345Z,991.25
2018-04-15T06:53:44.536Z,991.22
2018-04-15T06:54:44.705Z,991.23
2018-04-15T06:55:46.580Z,991.16
2018-04-15T06:56:45.352Z,991.14
2018-04-15T06:57:45.655Z,991.13
2018-04-15T06:58:45.457Z,991.10
2018-04-15T06:59:45.649Z,991.09
2018-04-15T07:00:45.823Z,991.12
2018-04-15T07:01:46.091Z,991.09
2018-04-15T07:02:46.130Z,991.08
2018-04-15T07:03:46.316Z,991.07
2018-04-15T07:04:46.543Z,991.02
2018-04-15T07:05:46.705Z,991.02
2018-04-15T07:06:46.885Z,990.98
2018-04-15T07:07:47.063Z,991.02
2018-04-15T07:08:47.239Z,991.02
2018-04-15T07:09:47.456Z,991.04
2018-04-15T07:10:47.755Z,991.04
2018-04-15T07:11:47.742Z,991.06
2018-04-15T07:12:48.074Z,991.05
2018-04-15T07:13:48.042Z,991.07
2018-04-15T07:14:48.290Z,991.04
2018-04-15T07:15:48.659Z,991.06
2018-04-15T07:16:48.897Z,991.10
2018-04-15T07:17:48.946Z,991.10
2018-04-15T07:18:49.885Z,991.14
2018-04-15T07:19:49.698Z,991.11
2018-04-15T07:20:51.085Z,991.09
2018-04-15T07:21:50.882Z,991.08
2018-04-15T07:22:51.254Z,991.08
2018-04-15T07:23:49.759Z,991.06
2018-04-15T07:24:51.549Z,991.11
2018-04-15T07:25:50.298Z,991.09
2018-04-15T07:26:50.567Z,991.12
2018-04-15T07:27:50.526Z,991.12
2018-04-15T07:28:50.761Z,991.11
2018-04-15T07:29:50.998Z,991.15
2018-04-15T07:30:50.911Z,991.16
2018-04-15T07:31:51.259Z,991.19
2018-04-15T07:32:53.029Z,991.20
2018-04-15T07:33:51.623Z,991.22
2018-04-15T07:34:51.631Z,991.21
2018-04-15T07:35:52.992Z,991.24
2018-04-15T07:36:52.007Z,991.25
2018-04-15T07:37:52.218Z,991.24
2018-04-15T07:38:52.385Z,991.24
2018-04-15T07:39:52.651Z,991.29
2018-04-15T07:40:52.789Z,991.29
2018-04-15T07:41:52.969Z,991.25
2018-04-15T07:42:53.163Z,991.30
2018-04-15T07:43:53.362Z,991.26
2018-04-15T07:44:53.545Z,991.29
2018-04-15T07:45:53.768Z,991.27
2018-04-15T07:46:53.921Z,991.28
2018-04-15T07:47:54.156Z,991.28
2018-04-15T07:48:54.351Z,991.27
2018-04-15T07:49:54.516Z,991.24
2018-04-15T07:50:54.882Z,991.27
2018-04-15T07:51:54.859Z,991.24
2018-04-15T07:52:55.061Z,991.20
2018-04-15T07:53:55.294Z,991.26
2018-04-15T07:54:55.463Z,991.25
2018-04-15T07:55:55.680Z,991.22
2018-04-15T07:56:55.867Z,991.25
2018-04-15T07:57:56.049Z,991.27
2018-04-15T07:58:56.240Z,991.28
2018-04-15T07:59:56.420Z,991.27
2018-04-15T08:00:57.831Z,991.25
2018-04-15T08:01:58.126Z,991.25
2018-04-15T08:02:57.356Z,991.24
2018-04-15T08:03:57.604Z,991.20
2018-04-15T08:04:57.432Z,991.22
2018-04-15T08:05:57.893Z,991.22
2018-04-15T08:06:57.721Z,991.23
2018-04-15T08:07:58.452Z,991.22
2018-04-15T08:08:58.128Z,991.22
2018-04-15T08:09:58.303Z,991.20
2018-04-15T08:10:58.499Z,991.22
2018-04-15T08:11:58.676Z,991.15
2018-04-15T08:12:58.851Z,991.16
2018-04-15T08:13:59.035Z,991.09
2018-04-15T08:14:59.217Z,991.14
2018-04-15T08:15:59.396Z,991.14
2018-04-15T08:16:59.591Z,991.12
2018-04-15T08:17:59.760Z,991.09
2018-04-15T08:19:00.087Z,991.08
2018-04-15T08:20:00.110Z,991.06
2018-04-15T08:21:00.292Z,991.05
2018-04-15T08:22:00.483Z,991.03
2018-04-15T08:23:00.661Z,990.99
2018-04-15T08:24:01.105Z,991.03
2018-04-15T08:25:01.023Z,991.01
2018-04-15T08:26:01.207Z,991.03
2018-04-15T08:27:01.627Z,990.95
2018-04-15T08:28:01.555Z,990.98
2018-04-15T08:29:01.774Z,991.01
2018-04-15T08:30:01.938Z,990.94
2018-04-15T08:31:01.992Z,990.94
2018-04-15T08:32:02.184Z,990.92
2018-04-15T08:33:02.633Z,990.87
2018-04-15T08:34:02.547Z,990.89
2018-04-15T08:35:02.730Z,990.91
2018-04-15T08:36:02.915Z,990.93
2018-04-15T08:37:03.094Z,990.95
2018-04-15T08:38:03.276Z,990.94
2018-04-15T08:39:03.469Z,990.94
2018-04-15T08:40:03.645Z,991.02
2018-04-15T08:41:05.436Z,990.99
2018-04-15T08:42:06.269Z,991.02
2018-04-15T08:43:05.386Z,990.96
2018-04-15T08:44:07.722Z,990.94
2018-04-15T08:45:04.701Z,991.01
2018-04-15T08:46:04.847Z,990.91
2018-04-15T08:47:05.322Z,990.90
2018-04-15T08:48:05.211Z,990.95
2018-04-15T08:49:05.355Z,991.01
2018-04-15T08:50:09.776Z,990.89
2018-04-15T08:51:08.110Z,990.84
2018-04-15T08:52:06.263Z,990.88
2018-04-15T08:53:07.051Z,990.87
2018-04-15T08:54:06.624Z,991.09
2018-04-15T08:55:06.988Z,990.91
2018-04-15T08:56:06.541Z,990.88
2018-04-15T08:57:06.809Z,990.82
2018-04-15T08:58:07.234Z,991.19
2018-04-15T08:59:07.113Z,990.86
2018-04-15T09:00:07.388Z,990.75
2018-04-15T09:01:07.407Z,990.72
2018-04-15T09:02:08.997Z,990.94
2018-04-15T09:03:07.553Z,990.76
2018-04-15T09:04:07.789Z,990.75
2018-04-15T09:05:09.625Z,990.75
2018-04-15T09:06:08.171Z,990.80
2018-04-15T09:07:08.247Z,990.88
2018-04-15T09:08:08.397Z,990.91
2018-04-15T09:09:08.784Z,990.96
2018-04-15T09:10:08.879Z,990.86
2018-04-15T09:11:09.169Z,990.77
2018-04-15T09:12:09.276Z,990.68
2018-04-15T09:13:09.388Z,990.75
2018-04-15T09:14:09.499Z,990.57
2018-04-15T09:15:09.619Z,990.57
2018-04-15T09:16:10.380Z,990.50
2018-04-15T09:17:10.037Z,990.62
2018-04-15T09:18:10.334Z,991.04
2018-04-15T09:19:10.371Z,991.09
2018-04-15T09:20:10.245Z,990.76
2018-04-15T09:21:10.435Z,990.93
2018-04-15T09:22:10.669Z,990.97
2018-04-15T09:23:10.997Z,990.77
2018-04-15T09:24:11.619Z,991.07
2018-04-15T09:25:11.691Z,990.74
2018-04-15T09:26:11.464Z,990.55
2018-04-15T09:27:11.646Z,990.93
2018-04-15T09:28:11.648Z,990.79
2018-04-15T09:29:11.848Z,990.76
2018-04-15T09:30:12.056Z,990.96
2018-04-15T09:31:12.232Z,990.95
2018-04-15T09:32:12.429Z,991.00
2018-04-15T09:33:12.658Z,990.99
2018-04-15T09:34:12.953Z,990.70
2018-04-15T09:35:13.047Z,990.79
2018-04-15T09:36:13.229Z,990.78
2018-04-15T09:37:13.424Z,990.84
2018-04-15T09:38:13.628Z,990.92
2018-04-15T09:39:13.816Z,990.88
2018-04-15T09:40:14.001Z,990.71
2018-04-15T09:41:14.205Z,990.79
2018-04-15T09:42:14.412Z,990.79
2018-04-15T09:43:14.639Z,990.73
2018-04-15T09:44:14.876Z,990.80
2018-04-15T09:45:15.069Z,990.82
2018-04-15T09:46:15.255Z,990.78
2018-04-15T09:47:15.449Z,990.81
2018-04-15T09:48:15.687Z,990.82
2018-04-15T09:49:15.847Z,990.81
2018-04-15T09:50:16.039Z,990.81
2018-04-15T09:51:16.230Z,990.87
2018-04-15T09:52:16.420Z,990.84
2018-04-15T09:53:16.612Z,990.44
2018-04-15T09:54:16.872Z,990.28
2018-04-15T09:55:17.090Z,990.65
2018-04-15T09:56:17.244Z,990.37
2018-04-15T09:57:17.505Z,990.57
2018-04-15T09:58:17.674Z,990.72
2018-04-15T09:59:17.870Z,990.52
2018-04-15T10:00:18.123Z,990.51
2018-04-15T10:01:18.295Z,990.31
2018-04-15T10:02:18.488Z,990.65
2018-04-15T10:03:18.682Z,990.54
2018-04-15T10:04:18.863Z,990.82
2018-04-15T10:05:19.067Z,990.82
2018-04-15T10:06:19.255Z,990.85
2018-04-15T10:07:19.449Z,990.86
2018-04-15T10:08:19.662Z,990.84
2018-04-15T10:09:19.851Z,990.81
2018-04-15T10:10:20.022Z,990.84
2018-04-15T10:11:20.943Z,990.81
2018-04-15T10:12:20.414Z,990.81
2018-04-15T10:13:20.674Z,990.76
2018-04-15T10:14:20.788Z,990.72
2018-04-15T10:15:20.977Z,990.77
2018-04-15T10:16:21.181Z,990.73
2018-04-15T10:17:21.367Z,990.74
2018-04-15T10:18:21.549Z,990.68
2018-04-15T10:19:21.742Z,990.70
2018-04-15T10:20:21.928Z,990.72
2018-04-15T10:21:22.122Z,990.70
2018-04-15T10:22:22.312Z,990.71
2018-04-15T10:23:22.509Z,990.70
2018-04-15T10:24:22.699Z,990.64
2018-04-15T10:25:22.878Z,990.66
2018-04-15T10:26:23.069Z,990.64
2018-04-15T10:27:23.260Z,990.62
2018-04-15T10:28:23.451Z,990.60
2018-04-15T10:29:23.728Z,990.59
2018-04-15T10:30:23.793Z,990.54
2018-04-15T10:31:23.991Z,990.56
2018-04-15T10:32:24.190Z,990.54
2018-04-15T10:33:24.384Z,990.57
2018-04-15T10:34:24.572Z,990.55
2018-04-15T10:35:24.761Z,990.52
2018-04-15T10:36:24.950Z,990.49
2018-04-15T10:37:25.152Z,990.51
2018-04-15T10:38:25.349Z,990.51
2018-04-15T10:39:25.576Z,990.53
2018-04-15T10:40:25.732Z,990.49
2018-04-15T10:41:25.923Z,990.48
2018-04-15T10:42:26.115Z,990.49
2018-04-15T10:43:26.320Z,990.47
2018-04-15T10:44:26.530Z,990.46
2018-04-15T10:45:26.724Z,990.39
2018-04-15T10:46:26.946Z,990.51
2018-04-15T10:47:27.164Z,990.45
2018-04-15T10:48:27.351Z,990.45
2018-04-15T10:49:27.539Z,990.44
2018-04-15T10:50:27.728Z,990.41
2018-04-15T10:51:27.915Z,990.42
2018-04-15T10:52:28.104Z,990.37
2018-04-15T10:53:28.288Z,990.36
2018-04-15T10:54:28.484Z,990.30
2018-04-15T10:55:28.681Z,990.23
2018-04-15T10:56:28.873Z,990.21
2018-04-15T10:57:29.118Z,990.23
2018-04-15T10:58:29.634Z,990.17
2018-04-15T10:59:29.948Z,990.14
2018-04-15T11:00:29.592Z,990.08
2018-04-15T11:01:29.779Z,990.02
2018-04-15T11:02:29.961Z,989.96
2018-04-15T11:03:30.170Z,989.90
2018-04-15T11:04:30.351Z,989.90
2018-04-15T11:05:30.568Z,989.91
2018-04-15T11:06:30.737Z,989.84
2018-04-15T11:07:30.932Z,989.75
2018-04-15T11:08:31.118Z,989.78
2018-04-15T11:09:31.311Z,989.65
2018-04-15T11:10:31.500Z,989.65
2018-04-15T11:11:31.687Z,989.64
2018-04-15T11:12:31.874Z,989.69
2018-04-15T11:13:33.990Z,989.66
2018-04-15T11:14:33.813Z,989.66
2018-04-15T11:15:32.457Z,989.74
2018-04-15T11:16:32.639Z,989.72
2018-04-15T11:17:32.842Z,989.67
2018-04-15T11:18:33.090Z,989.65
2018-04-15T11:19:33.914Z,989.64
2018-04-15T11:20:33.797Z,989.61
2018-04-15T11:21:33.587Z,989.60
2018-04-15T11:22:33.740Z,989.58
2018-04-15T11:23:33.935Z,989.57
2018-04-15T11:24:34.113Z,989.54
2018-04-15T11:25:34.336Z,989.50
2018-04-15T11:26:34.881Z,989.51
2018-04-15T11:27:34.693Z,989.52
2018-04-15T11:28:34.880Z,989.52
2018-04-15T11:29:35.063Z,989.49
2018-04-15T11:30:35.257Z,989.49
2018-04-15T11:31:35.466Z,989.47
2018-04-15T11:32:36.096Z,989.45
2018-04-15T11:33:36.489Z,989.38
2018-04-15T11:34:36.293Z,989.38
2018-04-15T11:35:36.449Z,989.38
2018-04-15T11:36:36.516Z,989.40
2018-04-15T11:37:36.389Z,989.39
2018-04-15T11:38:36.585Z,989.44
2018-04-15T11:39:36.773Z,989.41
2018-04-15T11:40:36.963Z,989.35
2018-04-15T11:41:37.152Z,989.36
2018-04-15T11:42:38.634Z,989.29
2018-04-15T11:43:37.596Z,989.28
2018-04-15T11:44:37.748Z,989.27
2018-04-15T11:45:37.942Z,989.24
2018-04-15T11:46:38.120Z,989.22
2018-04-15T11:47:38.359Z,989.22
2018-04-15T11:48:38.549Z,989.19
2018-04-15T11:49:38.898Z,989.17
2018-04-15T11:50:39.549Z,989.18
2018-04-15T11:51:39.064Z,989.16
2018-04-15T11:52:39.209Z,989.11
2018-04-15T11:53:39.426Z,989.11
2018-04-15T11:54:39.596Z,989.08
2018-04-15T11:55:39.770Z,989.09
2018-04-15T11:56:39.956Z,989.06
2018-04-15T11:57:40.557Z,989.05
2018-04-15T11:58:40.547Z,989.02
2018-04-15T11:59:40.442Z,988.97
2018-04-15T12:00:40.626Z,988.94
2018-04-15T12:01:40.813Z,988.94
2018-04-15T12:02:41.003Z,988.96
2018-04-15T12:03:41.183Z,988.87
2018-04-15T12:04:41.378Z,988.88
2018-04-15T12:05:41.570Z,988.87
2018-04-15T12:06:41.762Z,988.85
2018-04-15T12:07:41.956Z,988.86
2018-04-15T12:08:42.137Z,988.84
2018-04-15T12:09:42.326Z,988.83
2018-04-15T12:10:42.534Z,988.87
2018-04-15T12:11:42.704Z,988.85
2018-04-15T12:12:42.897Z,988.86
2018-04-15T12:13:43.089Z,988.88
2018-04-15T12:14:43.982Z,988.87
2018-04-15T12:15:43.699Z,988.87
2018-04-15T12:16:43.643Z,988.84
2018-04-15T12:17:43.826Z,988.83
2018-04-15T12:18:44.034Z,988.82
2018-04-15T12:19:44.214Z,988.84
2018-04-15T12:20:44.412Z,988.81
2018-04-15T12:21:44.633Z,988.82
2018-04-15T12:22:44.811Z,988.77
2018-04-15T12:23:45.003Z,988.77
2018-04-15T12:24:48.730Z,988.74
2018-04-15T12:25:46.282Z,988.70
2018-04-15T12:26:47.651Z,988.73
2018-04-15T12:27:45.666Z,988.70
2018-04-15T12:28:45.866Z,988.68
2018-04-15T12:29:46.049Z,988.62
2018-04-15T12:30:46.230Z,988.61